Time;durP1;ratioP1;P1;durP2;ratioP2;P2;SDS_P1;SDS_P2;PMS_P1;PMS_P2;Temp;Humidity;BMP_temperature;BMP_pressure;BME280_temperature;BME280_humidity;BME280_pressure;Samples;Min_cycle;Max_cycle;Signal;HPM_P1;HPM_P2
2021/03/27 00:00:28;;;;;;;8.90;7.60;;;5.80;99.90;;;;;;4161303;28;20484;-85
2021/03/27 00:02:41;;;;;;;14.10;7.00;;;5.70;99.90;;;;;;4161767;28;20584;-87
2021/03/27 00:04:51;;;;;;;8.73;7.03;;;5.70;99.90;;;;;;4161475;28;20067;-86
2021/03/27 00:07:00;;;;;;;12.13;7.13;;;5.80;99.90;;;;;;4162272;28;20115;-86
2021/03/27 00:09:12;;;;;;;8.88;7.60;;;5.80;99.90;;;;;;4161101;28;20548;-85
2021/03/27 00:11:29;;;;;;;10.93;7.78;;;5.80;99.90;;;;;;4162253;28;20094;-86
2021/03/27 00:13:43;;;;;;;8.18;7.38;;;5.80;99.90;;;;;;4162028;28;20042;-84
2021/03/27 00:16:14;;;;;;;7.78;6.80;;;5.70;99.90;;;;;;4148221;28;20056;-84
2021/03/27 00:18:38;;;;;;;7.20;6.22;;;5.60;99.90;;;;;;4154949;28;20056;-85
2021/03/27 00:21:04;;;;;;;12.32;6.47;;;5.50;99.90;;;;;;4172387;28;20408;-83
2021/03/27 00:23:22;;;;;;;6.40;5.03;;;5.50;99.90;;;;;;4163909;28;20075;-83
2021/03/27 00:25:35;;;;;;;7.20;5.43;;;5.50;99.90;;;;;;4164223;28;20071;-84
2021/03/27 00:27:57;;;;;;;7.70;5.45;;;5.50;99.90;;;;;;4164037;28;20385;-86
2021/03/27 00:30:05;;;;;;;4.80;4.40;;;5.50;99.90;;;;;;4158507;28;20112;-87
2021/03/27 00:32:11;;;;;;;6.63;4.60;;;5.50;99.90;;;;;;4177282;28;20040;-85
2021/03/27 00:34:19;;;;;;;7.28;4.70;;;5.50;99.90;;;;;;4162750;28;20028;-85
2021/03/27 00:36:28;;;;;;;5.63;4.35;;;5.40;99.90;;;;;;4156380;28;20021;-85
2021/03/27 00:38:34;;;;;;;11.25;5.28;;;5.40;99.90;;;;;;4157228;28;20025;-84
2021/03/27 00:40:51;;;;;;;15.05;5.50;;;5.40;99.90;;;;;;4162793;28;20032;-85
2021/03/27 00:43:06;;;;;;;7.30;4.80;;;5.40;99.90;;;;;;4161095;28;20036;-85
2021/03/27 00:45:20;;;;;;;5.72;4.25;;;5.30;99.90;;;;;;4162099;28;20028;-86
2021/03/27 00:47:26;;;;;;;8.30;4.82;;;5.30;99.90;;;;;;4162620;28;20037;-85
2021/03/27 00:49:37;;;;;;;7.55;5.25;;;5.30;99.90;;;;;;4162335;28;20029;-84
2021/03/27 00:51:47;;;;;;;6.82;5.20;;;5.20;99.90;;;;;;4163840;28;20029;-84
2021/03/27 00:53:58;;;;;;;7.95;5.10;;;5.20;99.90;;;;;;4162471;28;20120;-84
2021/03/27 00:56:14;;;;;;;7.93;5.53;;;5.20;99.90;;;;;;4162153;28;20390;-85
2021/03/27 00:58:27;;;;;;;10.35;4.10;;;5.20;99.90;;;;;;4161472;28;20025;-85
2021/03/27 01:00:48;;;;;;;5.32;4.40;;;5.20;99.90;;;;;;4163459;28;20120;-85
2021/03/27 01:02:57;;;;;;;7.30;4.20;;;5.20;99.90;;;;;;4162443;28;20029;-84
2021/03/27 01:05:03;;;;;;;8.98;4.65;;;5.30;99.90;;;;;;4162341;28;20037;-86
2021/03/27 01:07:11;;;;;;;5.85;5.00;;;5.20;99.90;;;;;;4161899;28;20033;-88
2021/03/27 01:09:14;;;;;;;7.32;4.88;;;5.20;99.90;;;;;;4163473;28;20025;-84
2021/03/27 01:11:28;;;;;;;6.57;5.05;;;5.30;99.90;;;;;;4159988;28;20461;-84
2021/03/27 01:13:31;;;;;;;7.50;5.20;;;5.40;99.90;;;;;;4162144;28;20030;-83
2021/03/27 01:15:37;;;;;;;10.07;6.00;;;5.40;99.90;;;;;;4161903;28;20167;-85
2021/03/27 01:17:42;;;;;;;10.40;7.00;;;5.40;99.90;;;;;;4160716;28;20177;-85
2021/03/27 01:19:53;;;;;;;11.05;7.05;;;5.40;99.90;;;;;;4158457;28;20507;-85
2021/03/27 01:21:56;;;;;;;11.82;7.75;;;5.40;99.90;;;;;;4160681;28;20133;-84
2021/03/27 01:24:07;;;;;;;13.48;7.93;;;5.40;99.90;;;;;;4161598;28;21816;-85
2021/03/27 01:26:12;;;;;;;14.45;8.50;;;5.50;99.90;;;;;;4153017;28;20064;-85
2021/03/27 01:28:59;;;;;;;11.43;8.32;;;5.50;99.90;;;;;;4150835;28;20026;-83
2021/03/27 01:31:18;;;;;;;16.08;9.57;;;5.60;99.90;;;;;;4140354;28;20033;-85
2021/03/27 01:33:25;;;;;;;15.65;10.30;;;5.60;99.90;;;;;;4161166;28;20155;-84
2021/03/27 01:35:42;;;;;;;15.57;9.65;;;5.60;99.90;;;;;;4160333;28;20160;-84
2021/03/27 01:37:53;;;;;;;17.02;11.32;;;5.60;99.90;;;;;;4163021;28;20029;-83
2021/03/27 01:39:59;;;;;;;18.10;11.70;;;5.60;99.90;;;;;;4157664;28;20134;-83
2021/03/27 01:42:46;;;;;;;23.00;12.52;;;5.60;99.90;;;;;;4163237;28;20026;-83
2021/03/27 01:45:12;;;;;;;15.90;10.75;;;5.60;99.90;;;;;;4137726;28;20092;-84
2021/03/27 01:47:32;;;;;;;32.17;13.70;;;5.60;99.90;;;;;;4161281;28;20129;-83
2021/03/27 01:49:36;;;;;;;19.83;12.52;;;5.60;99.90;;;;;;4161372;28;20115;-80
2021/03/27 01:51:57;;;;;;;6.75;4.25;;;5.60;99.90;;;;;;4161491;28;20040;-79
2021/03/27 01:54:09;;;;;;;6.80;3.53;;;5.40;99.90;;;;;;4158875;28;20032;-77
2021/03/27 01:56:44;;;;;;;4.22;3.28;;;4.70;99.90;;;;;;4161209;28;20405;-77
2021/03/27 01:58:54;;;;;;;5.25;3.10;;;4.30;99.90;;;;;;4161057;28;20388;-77
2021/03/27 02:01:03;;;;;;;8.02;3.88;;;4.20;99.90;;;;;;4161400;28;20065;-79
2021/03/27 02:03:07;;;;;;;5.45;3.17;;;4.10;99.90;;;;;;4162361;28;20503;-78
2021/03/27 02:05:18;;;;;;;6.32;3.03;;;4.10;99.90;;;;;;4149820;28;20385;-79
2021/03/27 02:07:43;;;;;;;6.32;3.30;;;4.20;99.90;;;;;;4161512;28;20534;-79
2021/03/27 02:09:50;;;;;;;6.43;3.50;;;4.10;99.90;;;;;;4160964;28;20136;-80
2021/03/27 02:12:03;;;;;;;8.15;4.20;;;4.10;99.90;;;;;;4162816;28;20022;-79
2021/03/27 02:14:29;;;;;;;8.57;3.90;;;4.00;99.90;;;;;;4161675;28;20427;-78
2021/03/27 02:16:35;;;;;;;9.45;4.22;;;4.10;99.90;;;;;;4162543;28;20485;-78
2021/03/27 02:18:41;;;;;;;9.32;4.80;;;4.00;99.90;;;;;;4162373;28;20044;-80
2021/03/27 02:20:54;;;;;;;8.10;4.57;;;3.90;99.90;;;;;;4162568;28;20049;-79
2021/03/27 02:23:36;;;;;;;14.05;5.82;;;4.00;99.90;;;;;;4161448;28;20085;-80
2021/03/27 02:26:08;;;;;;;9.82;5.90;;;3.90;99.90;;;;;;4130248;28;20049;-81
2021/03/27 02:28:30;;;;;;;15.55;7.93;;;4.00;99.90;;;;;;4155185;28;20021;-80
2021/03/27 02:30:59;;;;;;;14.10;7.95;;;4.00;99.90;;;;;;4157718;28;20037;-80
2021/03/27 02:33:06;;;;;;;18.55;9.55;;;4.10;99.90;;;;;;4160846;28;20056;-81
2021/03/27 02:35:33;;;;;;;17.02;8.75;;;4.00;99.90;;;;;;4144638;28;20033;-80
2021/03/27 02:37:49;;;;;;;18.48;11.23;;;4.10;99.90;;;;;;4159211;28;20048;-81
2021/03/27 02:40:08;;;;;;;22.20;12.98;;;4.10;99.90;;;;;;4150896;28;20044;-81
2021/03/27 02:42:30;;;;;;;23.60;12.70;;;4.10;99.90;;;;;;4162389;28;20037;-81
2021/03/27 02:44:38;;;;;;;25.02;13.70;;;4.10;99.90;;;;;;4160565;28;20511;-82
2021/03/27 02:46:50;;;;;;;35.10;15.85;;;4.10;99.90;;;;;;4161015;28;20060;-82
2021/03/27 02:49:14;;;;;;;29.40;16.20;;;4.10;99.90;;;;;;4162448;28;20022;-81
2021/03/27 02:51:35;;;;;;;31.70;14.02;;;4.10;99.90;;;;;;4159710;28;20018;-82
2021/03/27 02:53:40;;;;;;;26.38;16.00;;;4.20;99.90;;;;;;4162182;28;20065;-81
2021/03/27 02:56:02;;;;;;;36.50;17.45;;;4.30;99.90;;;;;;4159218;28;20543;-81
2021/03/27 02:58:24;;;;;;;32.47;16.02;;;4.30;99.90;;;;;;4158576;28;20037;-82
2021/03/27 03:00:43;;;;;;;34.10;17.52;;;4.30;99.90;;;;;;4160935;28;20025;-82
2021/03/27 03:02:55;;;;;;;31.55;16.83;;;4.30;99.90;;;;;;4160865;28;20048;-83
2021/03/27 03:05:14;;;;;;;30.67;14.50;;;4.30;99.90;;;;;;4162173;28;20033;-83
2021/03/27 03:07:55;;;;;;;34.05;17.30;;;4.30;99.90;;;;;;4164880;28;20057;-83
2021/03/27 03:10:27;;;;;;;33.72;15.10;;;4.40;99.90;;;;;;4127201;28;20029;-82
2021/03/27 03:12:57;;;;;;;37.95;14.30;;;4.40;99.90;;;;;;4151099;28;20081;-82
2021/03/27 03:15:26;;;;;;;34.83;18.10;;;4.40;99.90;;;;;;4154268;28;20116;-83
2021/03/27 03:17:36;;;;;;;39.10;18.95;;;4.40;99.90;;;;;;4163538;28;20046;-83
2021/03/27 03:20:08;;;;;;;32.55;17.02;;;4.30;99.90;;;;;;4162743;28;20040;-84
2021/03/27 03:22:26;;;;;;;46.45;16.83;;;4.40;99.90;;;;;;4162116;28;20033;-82
2021/03/27 03:24:36;;;;;;;34.63;16.88;;;4.50;99.90;;;;;;4163535;28;20523;-83
2021/03/27 03:27:15;;;;;;;34.17;16.13;;;4.50;99.90;;;;;;4154016;28;20068;-82
2021/03/27 03:29:34;;;;;;;35.15;14.02;;;4.50;99.90;;;;;;4082361;29;20062;-81
2021/03/27 03:31:38;;;;;;;30.13;12.88;;;4.60;99.90;;;;;;4082649;29;20122;-82
2021/03/27 03:33:48;;;;;;;29.73;16.05;;;4.70;99.90;;;;;;4105920;28;20036;-83
2021/03/27 03:36:04;;;;;;;41.78;15.95;;;4.70;99.90;;;;;;4163492;28;20468;-83
2021/03/27 03:38:25;;;;;;;38.03;16.27;;;4.70;99.90;;;;;;4160937;28;20480;-83
2021/03/27 03:41:01;;;;;;;37.55;14.70;;;4.70;99.90;;;;;;4163794;28;20037;-82
2021/03/27 03:43:25;;;;;;;26.33;11.98;;;4.70;99.90;;;;;;4155502;28;20042;-83
2021/03/27 03:45:36;;;;;;;30.65;12.55;;;4.70;99.90;;;;;;4164499;28;20401;-82
2021/03/27 03:48:08;;;;;;;38.53;15.70;;;4.70;99.90;;;;;;4164709;28;20032;-83
2021/03/27 03:50:37;;;;;;;29.13;12.25;;;4.80;99.90;;;;;;4135058;28;20756;-82
2021/03/27 03:52:57;;;;;;;27.15;12.70;;;4.90;99.90;;;;;;4163306;28;20025;-83
2021/03/27 03:55:09;;;;;;;24.65;12.15;;;4.90;99.90;;;;;;4163588;28;20108;-85
2021/03/27 03:57:29;;;;;;;42.13;14.80;;;4.90;99.90;;;;;;4163112;28;20447;-84
2021/03/27 03:59:50;;;;;;;17.08;8.18;;;4.80;99.90;;;;;;4161703;28;20040;-84
2021/03/27 04:01:55;;;;;;;25.50;12.70;;;4.80;99.90;;;;;;4153174;28;20435;-88
2021/03/27 04:04:07;;;;;;;25.52;10.57;;;4.80;99.90;;;;;;4163160;28;20087;-84
2021/03/27 04:06:14;;;;;;;29.95;12.98;;;4.80;99.90;;;;;;4157258;28;20041;-84
2021/03/27 04:08:29;;;;;;;25.70;12.70;;;4.80;99.90;;;;;;4161854;28;20030;-85
2021/03/27 04:10:32;;;;;;;24.35;10.60;;;4.70;99.90;;;;;;4163179;28;20057;-84
2021/03/27 04:12:53;;;;;;;32.20;12.75;;;4.60;99.90;;;;;;4158777;28;20091;-83
2021/03/27 04:15:15;;;;;;;23.98;8.95;;;4.60;99.90;;;;;;4163080;28;20369;-85
2021/03/27 04:17:30;;;;;;;31.70;11.60;;;4.60;99.90;;;;;;4159024;28;20103;-84
2021/03/27 04:19:37;;;;;;;32.38;12.48;;;4.80;99.90;;;;;;4155982;28;20457;-85
2021/03/27 04:22:11;;;;;;;24.52;12.18;;;4.80;99.90;;;;;;4162827;28;20065;-84
2021/03/27 04:24:23;;;;;;;29.13;11.67;;;4.80;99.90;;;;;;4132500;28;20481;-83
2021/03/27 04:26:37;;;;;;;24.63;9.00;;;4.90;99.90;;;;;;4162809;28;20081;-85
2021/03/27 04:28:40;;;;;;;29.48;11.68;;;5.00;99.90;;;;;;4161934;28;20121;-85
2021/03/27 04:30:46;;;;;;;28.85;10.40;;;5.00;99.90;;;;;;4164316;28;20365;-85
2021/03/27 04:32:52;;;;;;;23.15;9.80;;;5.10;99.90;;;;;;4158651;28;20048;-84
2021/03/27 04:35:12;;;;;;;17.65;6.90;;;5.10;99.90;;;;;;4158867;28;20332;-81
2021/03/27 04:37:32;;;;;;;23.15;9.45;;;5.10;99.90;;;;;;4177227;28;20029;-81
2021/03/27 04:39:49;;;;;;;28.10;10.68;;;5.10;99.90;;;;;;4152684;28;20034;-81
2021/03/27 04:42:10;;;;;;;21.55;8.70;;;5.10;99.90;;;;;;4163849;28;20037;-82
2021/03/27 04:44:34;;;;;;;25.52;9.45;;;5.00;99.90;;;;;;4161832;28;20033;-81
2021/03/27 04:46:59;;;;;;;28.73;9.45;;;5.10;99.90;;;;;;4163457;28;20372;-82
2021/03/27 04:49:24;;;;;;;26.63;8.80;;;5.10;99.90;;;;;;4164168;28;20500;-81
2021/03/27 04:51:30;;;;;;;32.40;9.70;;;5.10;99.90;;;;;;4151464;28;20108;-81
2021/03/27 04:53:51;;;;;;;26.70;11.18;;;5.10;99.90;;;;;;4162377;28;20459;-81
2021/03/27 04:56:13;;;;;;;17.55;8.82;;;5.10;99.90;;;;;;4161162;28;20029;-82
2021/03/27 04:58:25;;;;;;;25.85;9.07;;;5.20;99.90;;;;;;4163324;28;20029;-82
2021/03/27 05:00:29;;;;;;;26.55;9.70;;;5.10;99.90;;;;;;4157339;28;20129;-82
2021/03/27 05:02:34;;;;;;;21.83;8.70;;;5.10;99.90;;;;;;4163502;28;20091;-82
2021/03/27 05:05:03;;;;;;;28.05;8.43;;;5.20;99.90;;;;;;4162928;28;20788;-82
2021/03/27 05:07:12;;;;;;;22.15;7.38;;;5.20;99.90;;;;;;4160653;28;20037;-82
2021/03/27 05:09:34;;;;;;;18.13;5.97;;;5.20;99.90;;;;;;4163371;28;20049;-84
2021/03/27 05:11:41;;;;;;;15.73;5.40;;;5.30;99.90;;;;;;4156907;28;20041;-83
2021/03/27 05:13:52;;;;;;;14.68;4.85;;;5.40;99.90;;;;;;4162166;28;20095;-83
2021/03/27 05:16:03;;;;;;;13.88;5.22;;;5.30;99.90;;;;;;4157020;28;20049;-83
2021/03/27 05:18:27;;;;;;;11.18;4.30;;;5.30;99.90;;;;;;4145279;28;20052;-82
2021/03/27 05:20:33;;;;;;;14.80;5.85;;;5.20;99.90;;;;;;4146998;28;20037;-82
2021/03/27 05:22:47;;;;;;;13.80;4.70;;;5.30;99.90;;;;;;4153419;28;20056;-82
2021/03/27 05:25:06;;;;;;;9.90;4.70;;;5.20;99.90;;;;;;4161984;28;20041;-82
2021/03/27 05:27:37;;;;;;;12.27;5.15;;;5.10;99.90;;;;;;4162504;28;20179;-82
2021/03/27 05:30:19;;;;;;;20.85;5.13;;;5.00;99.90;;;;;;4159953;28;20033;-82
2021/03/27 05:32:36;;;;;;;18.58;5.03;;;5.00;99.90;;;;;;4152330;28;20083;-83
2021/03/27 05:34:43;;;;;;;18.02;5.30;;;5.00;99.90;;;;;;4162802;28;20136;-83
2021/03/27 05:36:53;;;;;;;14.90;5.65;;;4.90;99.90;;;;;;4162821;28;20056;-83
2021/03/27 05:39:20;;;;;;;15.20;5.75;;;4.90;99.90;;;;;;4163349;28;20447;-82
2021/03/27 05:41:32;;;;;;;19.88;6.13;;;4.80;99.90;;;;;;4151769;28;20033;-83
2021/03/27 05:44:07;;;;;;;18.42;6.47;;;4.80;99.90;;;;;;4162677;28;20069;-83
2021/03/27 05:46:38;;;;;;;19.40;4.97;;;4.80;99.90;;;;;;4150996;28;20127;-84
2021/03/27 05:49:02;;;;;;;13.27;5.05;;;4.90;99.90;;;;;;4169576;28;20392;-84
2021/03/27 05:51:21;;;;;;;18.90;5.15;;;5.00;99.90;;;;;;4153194;28;20041;-84
2021/03/27 05:53:42;;;;;;;23.98;5.72;;;5.00;99.90;;;;;;4159269;28;20060;-84
2021/03/27 05:56:15;;;;;;;10.00;4.28;;;5.10;99.90;;;;;;4159506;28;20468;-84
2021/03/27 05:58:29;;;;;;;13.30;4.43;;;5.10;99.90;;;;;;4160066;28;20071;-84
2021/03/27 06:00:55;;;;;;;13.02;5.15;;;5.20;99.90;;;;;;4162788;28;20038;-84
2021/03/27 06:03:14;;;;;;;15.90;5.18;;;5.30;99.90;;;;;;4156600;28;20041;-84
2021/03/27 06:05:48;;;;;;;18.75;3.90;;;5.30;99.90;;;;;;4153962;28;20032;-84
2021/03/27 06:08:07;;;;;;;;;;;5.40;99.90;;;;;;4153385;28;20425;-84
2021/03/27 06:10:21;;;;;;;12.52;4.00;;;5.40;99.90;;;;;;4159109;28;19909;-82
2021/03/27 06:12:55;;;;;;;24.33;5.13;;;5.30;99.90;;;;;;4150044;28;20033;-83
2021/03/27 06:15:09;;;;;;;15.73;4.93;;;5.30;99.90;;;;;;4148604;28;20057;-83
2021/03/27 06:17:33;;;;;;;19.90;5.28;;;5.20;99.90;;;;;;4159186;28;20107;-82
2021/03/27 06:19:55;;;;;;;6.65;3.95;;;5.20;99.90;;;;;;4161141;28;20029;-84
2021/03/27 06:22:15;;;;;;;15.45;5.22;;;5.20;99.90;;;;;;4162511;28;20057;-82
2021/03/27 06:24:42;;;;;;;13.50;5.00;;;5.20;99.90;;;;;;4168423;28;20044;-82
2021/03/27 06:27:08;;;;;;;7.38;3.10;;;5.10;99.90;;;;;;4158676;28;20033;-83
2021/03/27 06:29:53;;;;;;;13.75;3.30;;;5.00;99.90;;;;;;4167353;28;20108;-83
2021/03/27 06:32:18;;;;;;;9.43;2.92;;;5.00;99.90;;;;;;4139994;28;20053;-83
2021/03/27 06:35:23;;;;;;;15.10;5.13;;;4.90;99.90;;;;;;4155012;28;20107;-82
2021/03/27 06:37:26;;;;;;;9.80;4.20;;;4.90;99.90;;;;;;4111689;28;20034;-83
2021/03/27 06:39:29;;;;;;;12.20;3.83;;;4.80;99.90;;;;;;4095844;28;20039;-83
2021/03/27 06:41:48;;;;;;;;;;;4.70;99.90;;;;;;4123749;28;20061;-83
2021/03/27 06:43:57;;;;;;;9.48;3.95;;;4.70;99.90;;;;;;4161409;28;19913;-84
2021/03/27 06:46:15;;;;;;;9.38;3.55;;;4.60;99.90;;;;;;4153574;28;20052;-84
2021/03/27 06:48:37;;;;;;;10.98;4.57;;;4.70;99.90;;;;;;4165729;28;20400;-84
2021/03/27 06:51:16;;;;;;;11.73;3.60;;;4.70;99.90;;;;;;4153049;28;20045;-84
2021/03/27 06:53:41;;;;;;;14.55;4.15;;;4.80;99.90;;;;;;4154857;28;20135;-83
2021/03/27 06:56:04;;;;;;;8.18;3.80;;;4.90;99.90;;;;;;4164347;28;20472;-84
2021/03/27 06:58:32;;;;;;;22.63;3.85;;;5.00;99.90;;;;;;4156281;28;20026;-83
2021/03/27 07:00:54;;;;;;;6.97;3.30;;;5.10;99.90;;;;;;4150363;28;20042;-83
2021/03/27 07:03:22;;;;;;;13.77;3.72;;;5.10;99.90;;;;;;4149663;28;20030;-83
2021/03/27 07:05:54;;;;;;;12.57;3.95;;;5.00;99.90;;;;;;4147211;28;20026;-84
2021/03/27 07:08:25;;;;;;;16.30;4.75;;;4.90;99.90;;;;;;4154916;28;20033;-84
2021/03/27 07:10:46;;;;;;;12.93;3.95;;;4.90;99.90;;;;;;4159471;28;20029;-85
2021/03/27 07:13:10;;;;;;;8.05;3.42;;;5.10;99.90;;;;;;4158678;28;20428;-83
2021/03/27 07:15:56;;;;;;;19.38;3.83;;;5.20;99.90;;;;;;4154254;28;20030;-83
2021/03/27 07:18:17;;;;;;;9.20;3.33;;;5.30;99.90;;;;;;4146528;28;20184;-84
2021/03/27 07:20:30;;;;;;;13.13;4.07;;;5.30;99.90;;;;;;4163617;28;20025;-83
2021/03/27 07:23:00;;;;;;;11.60;4.20;;;5.30;99.90;;;;;;4156800;28;20030;-84
2021/03/27 07:25:28;;;;;;;9.57;4.10;;;5.30;99.90;;;;;;4164198;28;20033;-85
2021/03/27 07:27:47;;;;;;;10.23;3.65;;;5.30;99.90;;;;;;4151173;28;20463;-86
2021/03/27 07:30:12;;;;;;;8.90;3.90;;;5.40;99.90;;;;;;4162947;28;20452;-86
2021/03/27 07:32:34;;;;;;;7.95;3.28;;;5.60;99.90;;;;;;4162898;28;20088;-86
2021/03/27 07:34:37;;;;;;;8.30;3.13;;;5.80;99.90;;;;;;4162226;28;20048;-86
2021/03/27 07:36:55;;;;;;;7.68;3.35;;;5.90;99.90;;;;;;4158435;28;20056;-84
2021/03/27 07:39:33;;;;;;;8.57;3.63;;;5.80;99.90;;;;;;4163796;28;20032;-83
2021/03/27 07:41:37;;;;;;;13.23;4.40;;;5.70;99.90;;;;;;4161411;28;20037;-85
2021/03/27 07:43:51;;;;;;;15.55;4.93;;;5.70;99.90;;;;;;4161653;28;20477;-84
2021/03/27 07:45:57;;;;;;;14.15;4.25;;;5.80;99.90;;;;;;4164042;28;20116;-85
2021/03/27 07:48:03;;;;;;;17.40;4.30;;;5.80;99.90;;;;;;4163121;28;20042;-85
2021/03/27 07:51:01;;;;;;;18.40;5.25;;;5.90;99.90;;;;;;4164422;28;20034;-85
2021/03/27 07:53:32;;;;;;;15.05;4.50;;;6.00;99.90;;;;;;4113390;28;20027;-85
2021/03/27 07:55:50;;;;;;;21.75;4.93;;;6.10;99.90;;;;;;4097883;28;20113;-85
2021/03/27 07:58:06;;;;;;;12.27;5.05;;;6.20;99.90;;;;;;4117905;28;20033;-87
2021/03/27 08:00:14;;;;;;;8.65;3.70;;;6.30;99.90;;;;;;4162220;28;20018;-85
2021/03/27 08:02:18;;;;;;;11.15;4.55;;;6.30;99.90;;;;;;4164529;28;20515;-86
2021/03/27 08:04:36;;;;;;;13.55;4.70;;;6.30;99.90;;;;;;4162573;28;20030;-85
2021/03/27 08:06:53;;;;;;;12.38;4.63;;;6.40;99.90;;;;;;4174055;28;20034;-84
2021/03/27 08:09:13;;;;;;;19.20;4.95;;;6.40;99.90;;;;;;4159171;28;20449;-83
2021/03/27 08:11:51;;;;;;;16.98;5.40;;;6.40;99.90;;;;;;4148344;28;20062;-84
2021/03/27 08:14:13;;;;;;;10.38;4.68;;;6.50;99.90;;;;;;4148185;28;20080;-84
2021/03/27 08:16:55;;;;;;;16.58;4.47;;;6.50;99.90;;;;;;4155575;28;20034;-85
2021/03/27 08:19:20;;;;;;;14.32;5.35;;;6.60;99.90;;;;;;4167854;28;20396;-84
2021/03/27 08:21:35;;;;;;;27.38;9.57;;;6.70;99.90;;;;;;4149613;28;20207;-84
2021/03/27 08:24:13;;;;;;;17.48;4.43;;;6.80;99.90;;;;;;4162793;28;20042;-84
2021/03/27 08:26:49;;;;;;;22.70;5.22;;;6.90;99.90;;;;;;4162483;28;20033;-86
2021/03/27 08:28:52;;;;;;;16.20;4.93;;;6.90;99.90;;;;;;4159619;28;20104;-85
2021/03/27 08:31:02;;;;;;;;;;;7.00;99.90;;;;;;4164457;28;20033;-83
2021/03/27 08:33:24;;;;;;;13.43;3.47;;;7.20;99.90;;;;;;4161634;28;19998;-85
2021/03/27 08:35:57;;;;;;;16.27;5.07;;;7.60;99.90;;;;;;4160136;28;20651;-84
2021/03/27 08:38:31;;;;;;;14.00;5.68;;;7.90;99.90;;;;;;4163103;28;20037;-81
2021/03/27 08:40:57;;;;;;;12.00;4.50;;;7.70;99.90;;;;;;4163429;28;20040;-82
2021/03/27 08:43:19;;;;;;;25.58;4.72;;;7.30;99.90;;;;;;4162472;28;20098;-82
2021/03/27 08:45:39;;;;;;;15.48;5.32;;;7.00;99.90;;;;;;4155948;28;20037;-82
2021/03/27 08:48:13;;;;;;;22.80;6.32;;;6.80;99.90;;;;;;4158090;28;20624;-83
2021/03/27 08:50:33;;;;;;;16.90;4.45;;;6.70;99.90;;;;;;4172220;28;20051;-83
2021/03/27 08:52:58;;;;;;;17.25;4.85;;;6.70;99.90;;;;;;4162398;28;20041;-84
2021/03/27 08:55:31;;;;;;;18.80;4.90;;;6.50;99.90;;;;;;4163553;28;20026;-86
2021/03/27 08:57:43;;;;;;;9.95;4.32;;;6.40;99.90;;;;;;4148990;28;20164;-85
2021/03/27 09:00:04;;;;;;;11.05;3.15;;;6.30;99.90;;;;;;4160821;28;20060;-83
2021/03/27 09:02:20;;;;;;;13.75;3.63;;;6.40;99.90;;;;;;4158706;28;20082;-85
2021/03/27 09:04:45;;;;;;;13.63;4.38;;;6.60;99.90;;;;;;4161387;28;20076;-84
2021/03/27 09:07:27;;;;;;;18.65;4.57;;;6.80;99.90;;;;;;4154502;28;20042;-85
2021/03/27 09:10:01;;;;;;;13.38;5.03;;;7.30;99.90;;;;;;4120452;28;20084;-85
2021/03/27 09:12:39;;;;;;;14.00;4.35;;;7.70;99.90;;;;;;4150217;28;20409;-87
2021/03/27 09:14:42;;;;;;;15.43;5.22;;;8.00;99.90;;;;;;4154656;28;20492;-84
2021/03/27 09:18:55;;;;;;;6.97;2.65;;;7.90;99.90;;;;;;4160170;28;19929;-79
2021/03/27 09:21:21;;;;;;;10.85;4.05;;;8.20;99.90;;;;;;4162694;28;20034;-79
2021/03/27 09:23:37;;;;;;;12.93;4.63;;;8.60;99.90;;;;;;4162638;28;20048;-77
2021/03/27 09:26:09;;;;;;;12.20;4.07;;;8.90;99.90;;;;;;4145055;28;20030;-78
2021/03/27 09:28:30;;;;;;;13.45;3.92;;;9.00;99.90;;;;;;4145231;28;20041;-78
2021/03/27 09:30:55;;;;;;;7.78;3.92;;;8.80;99.90;;;;;;4162107;28;20392;-77
2021/03/27 09:33:27;;;;;;;12.68;3.88;;;8.70;99.90;;;;;;4145800;28;20096;-78
2021/03/27 09:35:38;;;;;;;8.20;3.63;;;8.50;99.90;;;;;;4149983;28;20397;-78
2021/03/27 09:37:48;;;;;;;18.48;3.70;;;8.20;99.90;;;;;;4160672;28;20029;-78
2021/03/27 09:39:53;;;;;;;11.35;3.33;;;7.90;99.90;;;;;;4159679;28;20113;-79
2021/03/27 09:42:34;;;;;;;9.07;3.75;;;7.80;99.90;;;;;;4144924;28;20026;-78
2021/03/27 09:45:07;;;;;;;17.10;4.78;;;8.20;99.90;;;;;;4133849;28;20049;-78
2021/03/27 09:47:11;;;;;;;11.57;4.00;;;8.90;99.90;;;;;;4126257;28;20061;-77
2021/03/27 09:49:32;;;;;;;;;;;9.30;99.90;;;;;;4145659;28;20030;-77
2021/03/27 09:51:46;;;;;;;12.95;5.03;;;9.50;99.90;;;;;;4161251;28;20284;-77
2021/03/27 09:54:02;;;;;;;13.15;3.13;;;9.60;99.90;;;;;;4140358;28;20116;-78
2021/03/27 09:56:11;;;;;;;10.55;3.47;;;9.90;99.90;;;;;;4161014;28;20032;-77
2021/03/27 09:58:15;;;;;;;3.78;2.40;;;10.00;99.90;;;;;;4160277;28;20032;-77
2021/03/27 10:00:34;;;;;;;;;;;9.90;99.90;;;;;;4137247;28;20418;-77
2021/03/27 10:02:44;;;;;;;11.88;3.42;;;10.00;99.90;;;;;;4159861;28;19924;-79
2021/03/27 10:05:07;;;;;;;7.75;3.22;;;9.80;99.90;;;;;;4148217;28;20480;-78
2021/03/27 10:07:26;;;;;;;10.60;3.80;;;10.00;99.90;;;;;;4145774;28;20073;-79
2021/03/27 10:09:48;;;;;;;8.82;3.22;;;10.30;99.90;;;;;;4161515;28;20273;-77
2021/03/27 10:12:00;;;;;;;11.82;4.07;;;10.30;99.90;;;;;;4162000;28;20025;-78
2021/03/27 10:14:12;;;;;;;8.00;3.78;;;10.30;99.90;;;;;;4144413;28;20030;-79
2021/03/27 10:16:19;;;;;;;13.20;3.38;;;10.30;99.90;;;;;;4160171;28;20034;-77
2021/03/27 10:18:38;;;;;;;11.25;4.35;;;10.40;99.90;;;;;;4160464;28;20124;-76
2021/03/27 10:20:47;;;;;;;13.07;3.50;;;10.40;99.90;;;;;;4142849;28;20390;-78
2021/03/27 10:22:57;;;;;;;9.57;4.20;;;10.20;99.90;;;;;;4158382;28;20036;-81
2021/03/27 10:25:06;;;;;;;13.07;3.80;;;9.50;99.90;;;;;;4153884;28;20042;-78
2021/03/27 10:27:28;;;;;;;5.45;3.30;;;9.10;99.90;;;;;;4160376;28;20026;-78
2021/03/27 10:29:47;;;;;;;7.28;3.75;;;9.00;99.90;;;;;;4158761;28;20116;-79
2021/03/27 10:31:48;;;;;;;11.43;3.53;;;9.10;99.90;;;;;;4145703;28;20093;-78
2021/03/27 10:34:42;;;;;;;8.10;4.32;;;9.60;99.90;;;;;;4145832;28;20022;-78
2021/03/27 10:37:09;;;;;;;9.40;3.10;;;10.00;99.90;;;;;;4099391;28;20131;-77
2021/03/27 10:39:16;;;;;;;4.40;2.90;;;10.20;99.90;;;;;;4124561;28;20261;-77
2021/03/27 10:41:25;;;;;;;8.73;3.75;;;9.80;99.90;;;;;;4164164;28;20566;-78
2021/03/27 10:43:48;;;;;;;8.82;3.85;;;9.40;99.90;;;;;;4153896;28;20026;-79
2021/03/27 10:45:55;;;;;;;9.95;3.53;;;9.00;99.90;;;;;;4147396;28;20121;-78
2021/03/27 10:48:04;;;;;;;8.23;3.10;;;9.10;99.90;;;;;;4144994;28;20022;-78
2021/03/27 10:50:29;;;;;;;8.48;4.35;;;9.40;99.90;;;;;;4155586;28;20048;-77
2021/03/27 10:52:45;;;;;;;7.15;2.70;;;9.10;99.90;;;;;;4145535;28;20073;-78
2021/03/27 10:55:23;;;;;;;10.68;3.58;;;8.80;99.90;;;;;;4155198;28;20030;-77
2021/03/27 10:58:17;;;;;;;10.27;3.28;;;9.50;99.90;;;;;;4146882;28;20087;-78
2021/03/27 11:00:37;;;;;;;10.82;2.88;;;10.70;99.90;;;;;;4123532;28;20037;-78
2021/03/27 11:03:15;;;;;;;8.40;3.42;;;10.60;99.90;;;;;;4152812;28;20033;-76
2021/03/27 11:05:23;;;;;;;17.60;3.13;;;9.70;99.90;;;;;;4163270;28;20034;-77
2021/03/27 11:07:59;;;;;;;18.85;3.90;;;9.00;99.90;;;;;;4162559;28;20453;-76
2021/03/27 11:10:18;;;;;;;7.60;3.20;;;9.20;99.90;;;;;;4162941;28;20036;-77
2021/03/27 11:12:38;;;;;;;14.10;3.47;;;9.70;99.90;;;;;;4168122;28;20026;-78
2021/03/27 11:14:38;;;;;;;9.55;3.03;;;10.30;99.90;;;;;;4146086;28;20041;-77
2021/03/27 11:16:47;;;;;;;12.00;3.35;;;10.20;99.90;;;;;;4146002;28;20030;-78
2021/03/27 11:19:25;;;;;;;13.68;4.47;;;9.80;99.90;;;;;;4146779;28;20562;-77
2021/03/27 11:21:56;;;;;;;9.75;2.42;;;9.20;99.90;;;;;;4157020;28;20121;-77
2021/03/27 11:24:00;;;;;;;12.23;4.03;;;8.80;99.90;;;;;;4152982;28;20108;-78
2021/03/27 11:26:38;;;;;;;10.10;3.53;;;8.10;99.90;;;;;;4152136;28;20503;-77
2021/03/27 11:29:02;;;;;;;12.88;3.90;;;7.60;99.90;;;;;;4164914;28;20116;-78
2021/03/27 11:31:34;;;;;;;11.65;3.72;;;7.20;99.90;;;;;;4145808;28;20034;-77
2021/03/27 11:33:53;;;;;;;11.43;3.85;;;7.30;99.90;;;;;;4158392;28;20040;-78
2021/03/27 11:36:21;;;;;;;19.73;4.00;;;6.90;99.90;;;;;;4159674;28;20120;-77
2021/03/27 11:38:52;;;;;;;12.23;3.30;;;6.70;99.90;;;;;;4162868;28;20041;-77
2021/03/27 11:41:04;;;;;;;11.70;3.85;;;6.60;99.90;;;;;;4134957;28;20425;-79
2021/03/27 11:43:28;;;;;;;16.55;4.30;;;6.90;99.90;;;;;;4162848;28;20041;-78
2021/03/27 11:45:34;;;;;;;16.30;5.47;;;7.00;99.90;;;;;;4164143;28;20053;-80
2021/03/27 11:47:54;;;;;;;6.72;3.55;;;7.30;99.90;;;;;;4163645;28;20428;-78
2021/03/27 11:50:13;;;;;;;10.27;4.38;;;7.50;99.90;;;;;;4163715;28;20037;-79
2021/03/27 11:52:25;;;;;;;14.95;4.38;;;7.70;99.90;;;;;;4163032;28;20033;-80
2021/03/27 11:54:44;;;;;;;13.10;4.00;;;7.90;99.90;;;;;;4152451;28;20021;-80
2021/03/27 11:57:09;;;;;;;13.50;4.70;;;7.90;99.90;;;;;;4166073;28;20396;-78
2021/03/27 12:01:42;;;;;;;6.20;3.33;;;7.70;99.90;;;;;;4155147;28;20037;-76
2021/03/27 12:04:14;;;;;;;12.90;4.75;;;7.60;99.90;;;;;;4165071;28;20029;-77
2021/03/27 12:06:33;;;;;;;12.00;4.60;;;7.60;99.90;;;;;;4147432;28;20033;-79
2021/03/27 12:09:00;;;;;;;6.97;3.63;;;7.30;99.90;;;;;;4141346;28;20076;-78